createdAt,value
2022-09-25T00:01:26.468Z,100279.08
2022-09-25T00:03:54.867Z,100273.36
2022-09-25T00:06:25.897Z,100270.61
2022-09-25T00:08:54.992Z,100267.64
2022-09-25T00:11:32.368Z,100267.34
2022-09-25T00:14:02.156Z,100269.52
2022-09-25T00:16:32.942Z,100272.48
2022-09-25T00:19:20.077Z,100270.09
2022-09-25T00:21:52.107Z,100269.73
2022-09-25T00:24:20.456Z,100267.04
2022-09-25T00:26:48.588Z,100264.23
2022-09-25T00:29:19.380Z,100262.35
2022-09-25T00:31:47.523Z,100262.44
2022-09-25T00:34:15.571Z,100259.17
2022-09-25T00:36:43.858Z,100253.81
2022-09-25T00:39:11.936Z,100258.30
2022-09-25T00:41:39.979Z,100253.17
2022-09-25T00:44:46.545Z,100246.52
2022-09-25T00:47:20.604Z,100243.27
2022-09-25T00:49:48.893Z,100239.98
2022-09-25T00:52:17.361Z,100241.56
2022-09-25T00:54:59.252Z,100242.62
2022-09-25T00:57:31.191Z,100243.91
2022-09-25T01:00:04.703Z,100247.48
2022-09-25T01:02:39.803Z,100245.36
2022-09-25T01:05:15.073Z,100247.38
2022-09-25T01:07:46.533Z,100249.36
2022-09-25T01:10:16.439Z,100250.35
2022-09-25T01:12:48.178Z,100251.82
2022-09-25T01:15:20.083Z,100250.96
2022-09-25T01:18:06.512Z,100253.42
2022-09-25T01:20:47.017Z,100247.02
2022-09-25T01:23:56.674Z,100248.27
2022-09-25T01:26:49.342Z,100251.19
2022-09-25T01:29:19.998Z,100249.69
2022-09-25T01:32:06.078Z,100245.16
2022-09-25T01:34:53.159Z,100248.16
2022-09-25T01:37:30.111Z,100250.70
2022-09-25T01:40:37.424Z,100247.75
2022-09-25T01:43:18.456Z,100251.40
2022-09-25T01:45:57.633Z,100253.98
2022-09-25T01:48:32.122Z,100258.52
2022-09-25T01:51:09.507Z,100256.16
2022-09-25T01:53:48.003Z,100256.52
2022-09-25T01:56:29.462Z,100256.33
2022-09-25T01:59:03.638Z,100262.21
2022-09-25T02:01:39.098Z,100257.02
2022-09-25T02:04:12.979Z,100258.66
2022-09-25T02:06:46.791Z,100260.84
2022-09-25T02:09:22.981Z,100257.55
2022-09-25T02:11:58.575Z,100256.95
2022-09-25T02:14:38.742Z,100259.95
2022-09-25T02:17:12.743Z,100262.65
2022-09-25T02:19:59.355Z,100257.41
2022-09-25T02:22:35.391Z,100255.42
2022-09-25T02:25:19.491Z,100249.14
2022-09-25T02:27:47.580Z,100254.20
2022-09-25T02:30:15.708Z,100253.40
2022-09-25T02:32:43.766Z,100250.92
2022-09-25T02:35:11.823Z,100253.52
2022-09-25T02:37:39.933Z,100250.45
2022-09-25T02:40:10.808Z,100253.09
2022-09-25T02:42:45.136Z,100251.79
2022-09-25T02:45:44.092Z,100249.73
2022-09-25T02:48:22.043Z,100247.67
2022-09-25T02:51:41.260Z,100246.64
2022-09-25T02:54:18.712Z,100240.62
2022-09-25T02:57:04.961Z,100237.56
2022-09-25T02:59:39.467Z,100239.27
2022-09-25T03:02:10.256Z,100238.71
2022-09-25T03:04:40.132Z,100241.83
2022-09-25T03:07:08.602Z,100236.43
2022-09-25T03:09:41.642Z,100237.69
2022-09-25T03:12:10.352Z,100241.50
2022-09-25T03:14:38.396Z,100237.98
2022-09-25T03:17:08.441Z,100232.05
2022-09-25T03:19:36.579Z,100228.92
2022-09-25T03:22:05.233Z,100227.36
2022-09-25T03:24:33.448Z,100227.98
2022-09-25T03:27:01.551Z,100224.81
2022-09-25T03:29:31.260Z,100224.52
2022-09-25T03:31:59.455Z,100228.98
2022-09-25T03:34:27.501Z,100230.05
2022-09-25T03:36:55.560Z,100228.52
2022-09-25T03:39:23.729Z,100227.43
2022-09-25T03:41:51.797Z,100232.86
2022-09-25T03:44:19.827Z,100235.38
2022-09-25T03:46:47.858Z,100237.02
2022-09-25T03:49:15.856Z,100240.29
2022-09-25T03:51:43.892Z,100237.30
2022-09-25T03:54:12.039Z,100239.09
2022-09-25T03:56:40.258Z,100237.41
2022-09-25T03:59:08.298Z,100232.85
2022-09-25T04:01:37.178Z,100230.55
2022-09-25T04:04:05.221Z,100231.28
2022-09-25T04:06:33.324Z,100233.23
2022-09-25T04:09:01.342Z,100234.74
2022-09-25T04:11:29.390Z,100232.73
2022-09-25T04:13:57.471Z,100233.86
2022-09-25T04:16:26.100Z,100236.20
2022-09-25T04:18:54.266Z,100236.63
2022-09-25T04:21:22.345Z,100234.98
2022-09-25T04:24:09.409Z,100232.27
2022-09-25T04:26:37.515Z,100230.02
2022-09-25T04:29:06.261Z,100226.27
2022-09-25T04:31:34.518Z,100229.73
2022-09-25T04:34:03.162Z,100228.36
2022-09-25T04:36:31.229Z,100228.63
2022-09-25T04:38:59.345Z,100220.88
2022-09-25T04:41:27.865Z,100220.59
2022-09-25T04:43:55.995Z,100216.30
2022-09-25T04:46:24.096Z,100214.26
2022-09-25T04:48:52.172Z,100211.88
2022-09-25T04:51:20.570Z,100217.03
2022-09-25T04:53:48.612Z,100224.89
2022-09-25T04:56:17.081Z,100228.39
2022-09-25T04:58:48.051Z,100235.67
2022-09-25T05:01:18.701Z,100236.89
2022-09-25T05:03:53.945Z,100236.57
2022-09-25T05:06:23.444Z,100230.94
2022-09-25T05:08:53.253Z,100235.07
2022-09-25T05:11:21.410Z,100233.50
2022-09-25T05:13:51.504Z,100234.11
2022-09-25T05:16:20.318Z,100237.73
2022-09-25T05:18:48.819Z,100241.17
2022-09-25T05:21:16.972Z,100236.23
2022-09-25T05:23:45.084Z,100232.02
2022-09-25T05:26:13.403Z,100226.17
2022-09-25T05:28:41.509Z,100223.81
2022-09-25T05:31:09.846Z,100227.61
2022-09-25T05:33:38.038Z,100227.32
2022-09-25T05:36:07.966Z,100231.86
2022-09-25T05:38:39.056Z,100230.88
2022-09-25T05:41:09.559Z,100234.27
2022-09-25T05:43:43.090Z,100237.68
2022-09-25T05:46:11.969Z,100239.34
2022-09-25T05:48:40.422Z,100237.90
2022-09-25T05:51:09.591Z,100233.09
2022-09-25T05:53:38.444Z,100233.27
2022-09-25T05:56:07.327Z,100233.46
2022-09-25T05:58:36.004Z,100227.82
2022-09-25T06:01:06.418Z,100225.73
2022-09-25T06:03:35.124Z,100232.41
2022-09-25T06:06:03.649Z,100231.46
2022-09-25T06:08:31.889Z,100231.08
2022-09-25T06:11:03.612Z,100235.09
2022-09-25T06:13:34.999Z,100234.23
2022-09-25T06:16:05.749Z,100237.33
2022-09-25T06:18:34.308Z,100243.80
2022-09-25T06:21:05.553Z,100244.92
2022-09-25T06:23:33.877Z,100245.01
2022-09-25T06:26:04.800Z,100245.98
2022-09-25T06:28:34.708Z,100246.65
2022-09-25T06:31:04.463Z,100249.88
2022-09-25T06:33:33.159Z,100248.69
2022-09-25T06:36:01.633Z,100252.53
2022-09-25T06:38:29.905Z,100251.41
2022-09-25T06:41:00.431Z,100252.33
2022-09-25T06:43:30.472Z,100256.77
2022-09-25T06:46:02.981Z,100256.70
2022-09-25T06:48:33.839Z,100250.26
2022-09-25T06:51:02.015Z,100247.21
2022-09-25T06:53:30.320Z,100251.44
2022-09-25T06:56:01.234Z,100250.11
2022-09-25T06:58:30.922Z,100250.12
2022-09-25T07:00:59.618Z,100244.13
2022-09-25T07:03:46.258Z,100243.70
2022-09-25T07:06:16.572Z,100240.51
2022-09-25T07:08:48.401Z,100242.00
2022-09-25T07:11:28.128Z,100240.13
2022-09-25T07:13:56.377Z,100240.38
2022-09-25T07:16:27.271Z,100242.81
2022-09-25T07:19:00.894Z,100245.65
2022-09-25T07:21:30.749Z,100238.42
2022-09-25T07:23:59.639Z,100237.95
2022-09-25T07:26:30.134Z,100234.35
2022-09-25T07:29:03.937Z,100230.69
2022-09-25T07:31:34.418Z,100229.15
2022-09-25T07:34:09.498Z,100230.89
2022-09-25T07:36:40.212Z,100226.71
2022-09-25T07:39:08.559Z,100227.37
2022-09-25T07:41:37.688Z,100224.80
2022-09-25T07:44:27.338Z,100225.88
2022-09-25T07:46:54.244Z,100230.42
2022-09-25T07:49:22.386Z,100235.20
2022-09-25T07:51:50.454Z,100234.14
2022-09-25T07:54:18.501Z,100233.38
2022-09-25T07:56:46.600Z,100239.24
2022-09-25T07:59:14.753Z,100232.48
2022-09-25T08:01:44.971Z,100231.49
2022-09-25T08:04:15.364Z,100222.73
2022-09-25T08:06:43.417Z,100218.67
2022-09-25T08:09:12.455Z,100218.22
2022-09-25T08:11:42.004Z,100212.63
2022-09-25T08:14:14.400Z,100216.69
2022-09-25T08:16:43.544Z,100219.34
2022-09-25T08:19:12.300Z,100219.34
2022-09-25T08:21:40.399Z,100218.26
2022-09-25T08:24:08.493Z,100214.24
2022-09-25T08:26:37.178Z,100211.73
2022-09-25T08:29:05.267Z,100208.33
2022-09-25T08:31:34.865Z,100205.99
2022-09-25T08:34:21.525Z,100206.23
2022-09-25T08:36:52.072Z,100209.89
2022-09-25T08:39:20.200Z,100204.66
2022-09-25T08:41:55.137Z,100199.71
2022-09-25T08:45:02.745Z,100196.33
2022-09-25T08:47:56.970Z,100195.11
2022-09-25T08:50:26.967Z,100192.99
2022-09-25T08:53:05.941Z,100192.35
2022-09-25T08:55:58.298Z,100187.91
2022-09-25T08:58:29.878Z,100184.24
2022-09-25T09:01:02.299Z,100177.15
2022-09-25T09:03:33.697Z,100180.40
2022-09-25T09:06:06.288Z,100177.77
2022-09-25T09:08:39.188Z,100171.32
2022-09-25T09:11:19.774Z,100171.40
2022-09-25T09:14:05.062Z,100170.27
2022-09-25T09:16:44.939Z,100162.49
2022-09-25T09:19:13.883Z,100158.45
2022-09-25T09:21:51.889Z,100154.77
2022-09-25T09:24:35.144Z,100152.86
2022-09-25T09:27:23.869Z,100149.21
2022-09-25T09:29:51.958Z,100144.58
2022-09-25T09:32:33.313Z,100144.42
2022-09-25T09:35:06.749Z,100139.70
2022-09-25T09:37:44.574Z,100135.38
2022-09-25T09:40:22.441Z,100132.83
2022-09-25T09:43:11.653Z,100131.52
2022-09-25T09:45:49.519Z,100132.11
2022-09-25T09:48:37.656Z,100130.67
2022-09-25T09:51:16.869Z,100119.75
2022-09-25T09:53:56.287Z,100113.67
2022-09-25T09:56:35.658Z,100118.23
2022-09-25T09:59:07.272Z,100121.00
2022-09-25T10:01:41.797Z,100108.56
2022-09-25T10:04:24.490Z,100120.22
2022-09-25T10:06:58.387Z,100116.70
2022-09-25T10:09:27.836Z,100111.75
2022-09-25T10:12:15.526Z,100106.06
2022-09-25T10:14:47.510Z,100100.00
2022-09-25T10:17:18.420Z,100085.89
2022-09-25T10:19:55.771Z,100082.21
2022-09-25T10:22:37.506Z,100086.98
2022-09-25T10:25:06.916Z,100087.52
2022-09-25T10:27:49.103Z,100084.21
2022-09-25T10:30:22.546Z,100084.94
2022-09-25T10:33:20.485Z,100078.98
2022-09-25T10:35:51.214Z,100074.16
2022-09-25T10:38:33.900Z,100073.20
2022-09-25T10:41:04.401Z,100073.45
2022-09-25T10:43:32.844Z,100063.98
2022-09-25T10:46:15.527Z,100058.51
2022-09-25T10:49:02.295Z,100053.86
2022-09-25T10:51:32.585Z,100055.27
2022-09-25T10:54:10.052Z,100057.75
2022-09-25T10:56:39.871Z,100056.73
2022-09-25T10:59:20.496Z,100052.63
2022-09-25T11:01:51.729Z,100051.83
2022-09-25T11:04:24.909Z,100057.81
2022-09-25T11:06:58.320Z,100050.41
2022-09-25T11:09:29.302Z,100048.61
2022-09-25T11:12:25.984Z,100050.98
2022-09-25T11:15:02.595Z,100060.15
2022-09-25T11:17:38.013Z,100058.16
2022-09-25T11:20:16.579Z,100061.58
2022-09-25T11:23:23.947Z,100059.19
2022-09-25T11:26:20.701Z,100059.09
2022-09-25T11:28:56.488Z,100059.41
2022-09-25T11:31:35.612Z,100058.45
2022-09-25T11:34:11.066Z,100056.91
2022-09-25T11:36:46.173Z,100049.64
2022-09-25T11:39:51.166Z,100049.57
2022-09-25T11:42:31.456Z,100048.81
2022-09-25T11:45:15.186Z,100046.48
2022-09-25T11:47:55.630Z,100048.56
2022-09-25T11:50:38.342Z,100049.11
2022-09-25T11:53:46.580Z,100044.20
2022-09-25T11:56:38.647Z,100043.92
2022-09-25T11:59:21.759Z,100036.10
2022-09-25T12:02:16.449Z,100039.22
2022-09-25T12:05:32.433Z,100033.10
2022-09-25T12:08:24.526Z,100030.80
2022-09-25T12:11:11.749Z,100031.09
2022-09-25T12:14:07.809Z,100027.42
2022-09-25T12:16:54.494Z,100023.38
2022-09-25T12:19:42.441Z,100022.91
2022-09-25T12:22:20.138Z,100017.80
2022-09-25T12:25:00.838Z,100007.52
2022-09-25T12:27:47.420Z,99999.86
2022-09-25T12:30:25.354Z,99994.55
2022-09-25T12:33:02.955Z,99991.26
2022-09-25T12:35:45.364Z,99989.67
2022-09-25T12:38:35.378Z,99990.13
2022-09-25T12:41:08.964Z,99995.80
2022-09-25T12:43:59.483Z,99992.30
2022-09-25T12:46:46.939Z,99990.65
2022-09-25T12:49:42.876Z,99992.38
2022-09-25T12:52:23.466Z,99995.05
2022-09-25T12:55:13.752Z,99991.73
2022-09-25T12:57:49.033Z,99990.10
2022-09-25T13:00:21.590Z,99986.31
2022-09-25T13:02:55.713Z,99977.42
2022-09-25T13:06:07.575Z,99976.51
2022-09-25T13:08:46.316Z,99975.45
2022-09-25T13:11:45.480Z,99975.03
2022-09-25T13:14:40.176Z,99978.88
2022-09-25T13:17:13.084Z,99980.83
2022-09-25T13:19:41.338Z,99972.30
2022-09-25T13:22:12.693Z,99970.91
2022-09-25T13:25:13.691Z,99971.34
2022-09-25T13:27:45.935Z,99962.42
2022-09-25T13:30:29.041Z,99962.08
2022-09-25T13:33:01.346Z,99953.29
2022-09-25T13:35:32.214Z,99945.00
2022-09-25T13:38:39.072Z,99941.64
2022-09-25T13:41:14.846Z,99936.50
2022-09-25T13:43:42.976Z,99939.77
2022-09-25T13:46:18.042Z,99929.76
2022-09-25T13:48:46.370Z,99927.04
2022-09-25T13:51:28.258Z,99924.77
2022-09-25T13:54:16.320Z,99918.30
2022-09-25T13:56:44.858Z,99915.89
2022-09-25T13:59:14.016Z,99914.72
2022-09-25T14:01:55.706Z,99908.70
2022-09-25T14:04:30.846Z,99909.20
2022-09-25T14:07:13.442Z,99908.54
2022-09-25T14:09:46.234Z,99906.42
2022-09-25T14:12:23.378Z,99910.79
2022-09-25T14:14:59.755Z,99914.55
2022-09-25T14:17:32.310Z,99906.44
2022-09-25T14:20:05.557Z,99899.72
2022-09-25T14:22:33.718Z,99896.78
2022-09-25T14:25:02.341Z,99894.57
2022-09-25T14:27:30.510Z,99897.88
2022-09-25T14:30:16.113Z,99896.55
2022-09-25T14:33:19.273Z,99897.48
2022-09-25T14:36:16.750Z,99897.38
2022-09-25T14:39:06.637Z,99900.38
2022-09-25T14:42:10.117Z,99899.52
2022-09-25T14:45:00.191Z,99889.81
2022-09-25T14:47:35.263Z,99885.20
2022-09-25T14:50:05.665Z,99884.20
2022-09-25T14:52:37.535Z,99875.63
2022-09-25T14:55:07.624Z,99873.31
2022-09-25T14:57:39.766Z,99864.32
2022-09-25T15:00:15.886Z,99859.39
2022-09-25T15:02:46.975Z,99862.14
2022-09-25T15:05:27.534Z,99861.91
2022-09-25T15:07:59.503Z,99860.96
2022-09-25T15:10:36.587Z,99858.77
2022-09-25T15:13:17.710Z,99859.38
2022-09-25T15:16:10.658Z,99861.92
2022-09-25T15:18:41.877Z,99858.05
2022-09-25T15:21:21.328Z,99859.40
2022-09-25T15:23:49.816Z,99856.09
2022-09-25T15:26:18.754Z,99853.16
2022-09-25T15:28:47.661Z,99851.27
2022-09-25T15:31:16.137Z,99841.52
2022-09-25T15:33:44.458Z,99838.45
2022-09-25T15:36:23.881Z,99840.05
2022-09-25T15:38:57.689Z,99830.49
2022-09-25T15:41:26.936Z,99826.39
2022-09-25T15:44:20.775Z,99830.78
2022-09-25T15:46:53.042Z,99828.70
2022-09-25T15:49:41.767Z,99829.81
2022-09-25T15:52:22.861Z,99837.38
2022-09-25T15:54:51.376Z,99841.55
2022-09-25T15:57:29.285Z,99845.41
2022-09-25T16:00:18.184Z,99846.27
2022-09-25T16:03:20.204Z,99842.40
2022-09-25T16:05:50.093Z,99842.65
2022-09-25T16:08:24.319Z,99842.81
2022-09-25T16:11:25.350Z,99838.10
2022-09-25T16:14:12.701Z,99834.90
2022-09-25T16:16:47.773Z,99836.39
2022-09-25T16:19:27.427Z,99840.81
2022-09-25T16:21:55.885Z,99843.36
2022-09-25T16:24:26.893Z,99841.54
2022-09-25T16:27:00.990Z,99835.58
2022-09-25T16:29:36.655Z,99830.58
2022-09-25T16:32:08.282Z,99830.48
2022-09-25T16:34:38.979Z,99831.10
2022-09-25T16:37:20.830Z,99830.58
2022-09-25T16:40:23.096Z,99834.75
2022-09-25T16:42:54.919Z,99837.48
2022-09-25T16:45:29.986Z,99834.81
2022-09-25T16:47:58.665Z,99830.09
2022-09-25T16:50:32.303Z,99826.92
2022-09-25T16:53:03.761Z,99827.91
2022-09-25T16:55:34.247Z,99826.40
2022-09-25T16:58:03.471Z,99825.29
2022-09-25T17:00:31.997Z,99813.90
2022-09-25T17:03:00.753Z,99805.61
2022-09-25T17:05:31.270Z,99795.69
2022-09-25T17:08:15.279Z,99809.44
2022-09-25T17:10:43.753Z,99808.39
2022-09-25T17:13:14.903Z,99804.35
2022-09-25T17:15:43.387Z,99802.16
2022-09-25T17:18:17.147Z,99798.97
2022-09-25T17:20:45.646Z,99789.97
2022-09-25T17:23:15.336Z,99788.69
2022-09-25T17:25:48.479Z,99792.27
2022-09-25T17:28:17.274Z,99791.93
2022-09-25T17:30:46.358Z,99795.63
2022-09-25T17:33:20.542Z,99796.86
2022-09-25T17:36:06.024Z,99798.91
2022-09-25T17:38:34.871Z,99801.45
2022-09-25T17:41:06.294Z,99799.81
2022-09-25T17:43:34.528Z,99805.58
2022-09-25T17:46:02.752Z,99810.60
2022-09-25T17:48:31.997Z,99817.43
2022-09-25T17:51:02.752Z,99818.41
2022-09-25T17:53:33.872Z,99822.37
2022-09-25T17:56:02.490Z,99825.63
2022-09-25T17:58:32.200Z,99827.18
2022-09-25T18:01:01.949Z,99823.37
2022-09-25T18:03:31.015Z,99827.12
2022-09-25T18:05:59.209Z,99826.59
2022-09-25T18:08:27.276Z,99818.60
2022-09-25T18:10:58.758Z,99825.16
2022-09-25T18:13:26.865Z,99826.29
2022-09-25T18:15:58.089Z,99820.66
2022-09-25T18:18:46.613Z,99817.94
2022-09-25T18:21:33.758Z,99813.58
2022-09-25T18:24:02.359Z,99804.30
2022-09-25T18:26:31.619Z,99798.45
2022-09-25T18:28:59.862Z,99800.47
2022-09-25T18:31:28.000Z,99799.48
2022-09-25T18:33:56.355Z,99801.58
2022-09-25T18:36:25.308Z,99801.11
2022-09-25T18:38:53.339Z,99797.69
2022-09-25T18:41:21.538Z,99792.52
2022-09-25T18:43:49.606Z,99796.47
2022-09-25T18:46:17.940Z,99795.02
2022-09-25T18:48:48.080Z,99795.92
2022-09-25T18:51:17.261Z,99791.77
2022-09-25T18:53:50.866Z,99781.25
2022-09-25T18:56:20.824Z,99782.15
2022-09-25T18:58:49.861Z,99780.23
2022-09-25T19:01:18.042Z,99775.03
2022-09-25T19:03:53.257Z,99772.77
2022-09-25T19:06:21.805Z,99772.93
2022-09-25T19:08:55.927Z,99775.24
2022-09-25T19:11:28.031Z,99770.44
2022-09-25T19:13:56.649Z,99772.90
2022-09-25T19:16:24.993Z,99774.13
2022-09-25T19:18:54.352Z,99767.89
2022-09-25T19:21:22.878Z,99768.59
2022-09-25T19:23:51.214Z,99765.98
2022-09-25T19:26:22.568Z,99762.04
2022-09-25T19:28:50.555Z,99760.78
2022-09-25T19:31:24.241Z,99759.77
2022-09-25T19:33:54.182Z,99755.19
2022-09-25T19:36:25.128Z,99751.30
2022-09-25T19:38:54.718Z,99750.41
2022-09-25T19:41:26.613Z,99747.52
2022-09-25T19:43:59.384Z,99748.60
2022-09-25T19:46:29.043Z,99746.33
2022-09-25T19:48:57.135Z,99742.89
2022-09-25T19:51:26.003Z,99754.11
2022-09-25T19:53:54.274Z,99756.44
2022-09-25T19:56:22.624Z,99758.97
2022-09-25T19:58:51.226Z,99761.64
2022-09-25T20:01:30.282Z,99762.59
2022-09-25T20:03:59.173Z,99764.27
2022-09-25T20:06:27.981Z,99767.75
2022-09-25T20:09:03.624Z,99769.52
2022-09-25T20:11:33.783Z,99762.19
2022-09-25T20:14:04.719Z,99761.36
2022-09-25T20:16:34.456Z,99762.77
2022-09-25T20:19:05.244Z,99763.96
2022-09-25T20:21:36.495Z,99757.37
2022-09-25T20:24:07.150Z,99755.28
2022-09-25T20:26:36.659Z,99757.25
2022-09-25T20:29:12.459Z,99756.46
2022-09-25T20:31:43.282Z,99755.89
2022-09-25T20:34:17.418Z,99754.84
2022-09-25T20:36:46.755Z,99749.77
2022-09-25T20:39:20.627Z,99748.29
2022-09-25T20:41:50.356Z,99748.36
2022-09-25T20:44:18.578Z,99749.52
2022-09-25T20:46:46.655Z,99746.42
2022-09-25T20:49:15.117Z,99739.77
2022-09-25T20:51:43.165Z,99738.02
2022-09-25T20:54:11.572Z,99734.09
2022-09-25T20:56:44.961Z,99732.45
2022-09-25T20:59:13.997Z,99730.05
2022-09-25T21:01:42.116Z,99730.91
2022-09-25T21:04:10.936Z,99730.91
2022-09-25T21:06:41.007Z,99732.60
2022-09-25T21:09:23.273Z,99727.64
2022-09-25T21:11:52.881Z,99722.68
2022-09-25T21:14:23.941Z,99727.64
2022-09-25T21:16:53.081Z,99724.17
2022-09-25T21:19:27.097Z,99720.29
2022-09-25T21:21:55.482Z,99719.67
2022-09-25T21:24:23.620Z,99711.77
2022-09-25T21:26:51.850Z,99714.14
2022-09-25T21:29:20.265Z,99712.60
2022-09-25T21:31:50.611Z,99713.12
2022-09-25T21:34:19.974Z,99709.30
2022-09-25T21:36:48.647Z,99710.97
2022-09-25T21:39:16.890Z,99703.48
2022-09-25T21:41:44.989Z,99700.63
2022-09-25T21:44:15.049Z,99702.66
2022-09-25T21:46:44.013Z,99697.69
2022-09-25T21:49:21.702Z,99692.64
2022-09-25T21:51:49.847Z,99688.78
2022-09-25T21:54:18.737Z,99687.05
2022-09-25T21:56:49.281Z,99682.30
2022-09-25T21:59:17.581Z,99677.70
2022-09-25T22:01:46.335Z,99675.63
2022-09-25T22:04:15.558Z,99675.89
2022-09-25T22:06:47.241Z,99672.45
2022-09-25T22:09:18.876Z,99671.55
2022-09-25T22:11:48.364Z,99665.74
2022-09-25T22:14:17.731Z,99669.11
2022-09-25T22:16:48.716Z,99668.15
2022-09-25T22:19:23.034Z,99666.35
2022-09-25T22:21:52.102Z,99663.40
2022-09-25T22:24:21.841Z,99657.95
2022-09-25T22:26:53.258Z,99653.33
2022-09-25T22:29:21.985Z,99653.14
2022-09-25T22:31:50.082Z,99646.03
2022-09-25T22:34:26.878Z,99649.06
2022-09-25T22:36:59.550Z,99651.71
2022-09-25T22:39:29.861Z,99650.39
2022-09-25T22:41:58.401Z,99651.77
2022-09-25T22:44:26.597Z,99654.95
2022-09-25T22:46:55.254Z,99656.58
2022-09-25T22:49:23.358Z,99657.77
2022-09-25T22:51:51.654Z,99655.91
2022-09-25T22:54:19.828Z,99657.78
2022-09-25T22:56:47.884Z,99656.05
2022-09-25T22:59:19.911Z,99655.80
2022-09-25T23:01:51.336Z,99654.66
2022-09-25T23:04:24.815Z,99652.46
2022-09-25T23:06:53.300Z,99646.46
2022-09-25T23:09:26.083Z,99649.13
2022-09-25T23:12:11.981Z,99646.52
2022-09-25T23:14:40.156Z,99641.13
2022-09-25T23:17:08.380Z,99637.20
2022-09-25T23:19:36.446Z,99638.87
2022-09-25T23:22:05.384Z,99642.23
2022-09-25T23:24:33.861Z,99642.64
2022-09-25T23:27:04.678Z,99648.33
2022-09-25T23:29:32.725Z,99645.24
2022-09-25T23:32:01.025Z,99646.41
2022-09-25T23:34:29.094Z,99647.13
2022-09-25T23:36:57.121Z,99648.19
2022-09-25T23:39:25.223Z,99647.71
2022-09-25T23:41:53.241Z,99642.02
2022-09-25T23:44:21.332Z,99637.50
2022-09-25T23:46:49.517Z,99638.39
2022-09-25T23:49:17.659Z,99638.30
2022-09-25T23:51:46.477Z,99641.28
2022-09-25T23:54:15.041Z,99637.52
2022-09-25T23:56:43.125Z,99633.44
2022-09-25T23:59:12.828Z,99634.91
